Time;durP1;ratioP1;P1;durP2;ratioP2;P2;SDS_P1;SDS_P2;PMS_P1;PMS_P2;Temp;Humidity;BMP_temperature;BMP_pressure;BME280_temperature;BME280_humidity;BME280_pressure;Samples;Min_cycle;Max_cycle;Signal;HPM_P1;HPM_P2
2022/12/13 00:00:17;;;;;;;;;;;;;;;0.05;66.01;100095.66;5270694;33;36259;-77
2022/12/13 00:03:19;;;;;;;;;;;;;;;-0.26;66.72;100097.38;5275739;33;45336;-68
2022/12/13 00:06:21;;;;;;;;;;;;;;;-0.66;68.29;100106.81;5284782;33;35498;-75
2022/12/13 00:09:23;;;;;;;;;;;;;;;-0.76;68.09;100105.09;5279188;32;35961;-68
2022/12/13 00:12:25;;;;;;;;;;;;;;;-0.13;67.31;100108.56;5288585;33;35183;-68
2022/12/13 00:15:26;;;;;;;;;;;;;;;0.96;63.16;100094.50;5271866;33;35909;-77
2022/12/13 00:18:28;;;;;;;;;;;;;;;-0.29;65.40;100110.31;5288089;33;35409;-78
2022/12/13 00:21:31;;;;;;;;;;;;;;;-0.15;65.19;100111.16;5283550;32;35337;-68
2022/12/13 00:24:33;;;;;;;;;;;;;;;0.67;62.78;100093.78;5273260;33;36038;-77
2022/12/13 00:27:35;;;;;;;;;;;;;;;0.59;62.98;100100.72;5287632;33;37961;-78
2022/12/13 00:30:38;;;;;;;;;;;;;;;0.83;61.55;100095.44;5271926;33;36146;-67
2022/12/13 00:33:40;;;;;;;;;;;;;;;0.34;62.94;100105.94;5298629;33;35325;-76
2022/12/13 00:36:42;;;;;;;;;;;;;;;0.04;64.95;100111.16;5281362;32;36224;-76
2022/12/13 00:39:44;;;;;;;;;;;;;;;0.35;63.28;100107.66;5267390;33;35406;-77
2022/12/13 00:42:46;;;;;;;;;;;;;;;0.10;64.16;100121.50;5272907;33;45750;-68
2022/12/13 00:45:48;;;;;;;;;;;;;;;0.56;62.78;100118.81;5272100;33;35355;-78
2022/12/13 00:48:53;;;;;;;;;;;;;;;0.37;63.70;100129.19;5299751;32;35884;-68
2022/12/13 00:51:55;;;;;;;;;;;;;;;0.02;64.21;100128.41;5281431;32;36101;-67
2022/12/13 00:54:57;;;;;;;;;;;;;;;0.53;63.31;100132.63;5288485;33;35528;-77
2022/12/13 00:57:59;;;;;;;;;;;;;;;0.24;63.61;100133.53;5270464;33;35581;-78
2022/12/13 01:01:02;;;;;;;;;;;;;;;0.24;63.84;100137.84;5287013;33;36168;-76
2022/12/13 01:04:04;;;;;;;;;;;;;;;0.22;63.64;100140.44;5274715;33;35518;-68
2022/12/13 01:07:06;;;;;;;;;;;;;;;0.20;63.87;100136.13;5278681;32;35399;-69
2022/12/13 01:10:08;;;;;;;;;;;;;;;-0.15;65.23;100137.00;5285670;33;35968;-77
2022/12/13 01:13:10;;;;;;;;;;;;;;;0.16;64.90;100137.84;5271442;33;35679;-78
2022/12/13 01:16:12;;;;;;;;;;;;;;;-0.29;66.30;100143.88;5297382;32;35735;-68
2022/12/13 01:19:14;;;;;;;;;;;;;;;0.16;64.85;100142.16;5283150;32;35522;-69
2022/12/13 01:22:16;;;;;;;;;;;;;;;-0.01;64.62;100135.25;5297306;32;44652;-78
2022/12/13 01:25:18;;;;;;;;;;;;;;;-0.29;65.27;100146.47;5272707;33;35615;-78
2022/12/13 01:28:20;;;;;;;;;;;;;;;-0.13;64.81;100152.50;5282094;32;35162;-75
2022/12/13 01:31:22;;;;;;;;;;;;;;;0.24;64.46;100143.88;5298375;32;34555;-75
2022/12/13 01:34:24;;;;;;;;;;;;;;;0.43;63.55;100142.13;5270986;33;34862;-68
2022/12/13 01:37:27;;;;;;;;;;;;;;;-0.05;65.22;100154.22;5297316;32;35497;-67
2022/12/13 01:40:29;;;;;;;;;;;;;;;-0.02;65.13;100153.34;5251642;33;35608;-77
2022/12/13 01:43:40;;;;;;;;;;;;;;;0.03;65.26;100151.66;5286457;33;36813;-77
2022/12/13 01:46:42;;;;;;;;;;;;;;;0.23;64.69;100152.50;5277031;33;34453;-69
2022/12/13 01:49:44;;;;;;;;;;;;;;;0.17;64.67;100160.25;5271420;33;34944;-67
2022/12/13 01:52:46;;;;;;;;;;;;;;;-0.29;65.64;100170.56;5286954;33;44396;-77
2022/12/13 01:55:50;;;;;;;;;;;;;;;0.35;64.26;100159.37;5271367;33;35355;-77
2022/12/13 01:58:52;;;;;;;;;;;;;;;0.16;63.78;100173.19;5298330;33;35711;-78
2022/12/13 02:01:54;;;;;;;;;;;;;;;0.12;64.45;100174.88;5282459;32;34725;-77
2022/12/13 02:05:17;;;;;;;;;;;;;;;-0.58;65.60;100182.53;5274855;33;36051;-76
2022/12/13 02:08:19;;;;;;;;;;;;;;;0.36;64.15;100174.03;5281548;33;44518;-78
2022/12/13 02:11:21;;;;;;;;;;;;;;;0.07;64.46;100175.78;5280827;32;34886;-68
2022/12/13 02:14:23;;;;;;;;;;;;;;;-0.50;66.85;100174.84;5298717;33;35293;-68
2022/12/13 02:17:43;;;;;;;;;;;;;;;-0.66;67.68;100179.94;5270909;33;35301;-69
2022/12/13 02:20:58;;;;;;;;;;;;;;;-0.40;66.84;100168.81;5279826;33;44296;-77
2022/12/13 02:24:19;;;;;;;;;;;;;;;-0.28;65.98;100171.44;5283978;33;35273;-68
2022/12/13 02:27:47;;;;;;;;;;;;;;;-0.13;66.13;100168.88;5280859;32;45918;-78
2022/12/13 02:31:09;;;;;;;;;;;;;;;-0.54;66.94;100166.22;5286157;33;44876;-68
2022/12/13 02:34:23;;;;;;;;;;;;;;;0.04;65.64;100163.69;5274803;33;37214;-76
2022/12/13 02:37:26;;;;;;;;;;;;;;;-0.27;66.43;100171.41;5280863;33;35961;-77
2022/12/13 02:40:32;;;;;;;;;;;;;;;-0.18;66.13;100172.31;5276585;33;34885;-68
2022/12/13 02:43:36;;;;;;;;;;;;;;;-0.57;67.15;100180.00;5281860;32;36135;-77
2022/12/13 02:46:48;;;;;;;;;;;;;;;-0.05;66.20;100174.91;5295517;32;44663;-77
2022/12/13 02:49:54;;;;;;;;;;;;;;;-0.36;66.89;100173.13;5282208;32;35915;-78
2022/12/13 02:52:56;;;;;;;;;;;;;;;0.16;65.43;100168.00;5282983;32;35960;-68
2022/12/13 02:55:58;;;;;;;;;;;;;;;0.14;64.57;100169.75;5296682;32;36014;-77
2022/12/13 02:59:02;;;;;;;;;;;;;;;-0.49;66.13;100166.22;5270774;33;35741;-77
2022/12/13 03:02:11;;;;;;;;;;;;;;;0.22;65.09;100160.25;5287163;33;35207;-77
2022/12/13 03:09:27;;;;;;;;;;;;;;;0.08;64.81;100162.84;5267383;33;35920;-76
2022/12/13 03:15:49;;;;;;;;;;;;;;;-0.74;66.51;100170.47;5269337;33;45127;-77
2022/12/13 03:18:53;;;;;;;;;;;;;;;0.03;65.18;100171.47;5286753;33;35953;-77
2022/12/13 03:21:54;;;;;;;;;;;;;;;0.03;64.51;100179.22;5282844;32;35553;-69
2022/12/13 03:24:56;;;;;;;;;;;;;;;-0.41;65.45;100173.13;5281854;32;36155;-78
2022/12/13 03:27:59;;;;;;;;;;;;;;;-0.33;65.32;100179.16;5287509;33;36082;-77
2022/12/13 03:31:03;;;;;;;;;;;;;;;-0.20;65.95;100174.88;5268019;33;35647;-67
2022/12/13 03:34:05;;;;;;;;;;;;;;;-0.54;66.42;100173.97;5286694;33;38344;-67
2022/12/13 03:37:06;;;;;;;;;;;;;;;-0.56;66.88;100176.53;5271344;33;35047;-77
2022/12/13 03:40:09;;;;;;;;;;;;;;;0.08;64.99;100174.91;5273862;32;35496;-69
2022/12/13 03:43:11;;;;;;;;;;;;;;;-0.77;66.74;100170.44;5275169;33;35709;-67
2022/12/13 03:46:12;;;;;;;;;;;;;;;-0.77;67.55;100185.91;5269376;33;35441;-68
2022/12/13 03:49:14;;;;;;;;;;;;;;;-0.71;67.30;100191.09;5297384;33;43470;-69
2022/12/13 03:52:18;;;;;;;;;;;;;;;-0.44;67.02;100183.47;5269352;33;34883;-78
2022/12/13 03:55:20;;;;;;;;;;;;;;;-0.58;66.51;100193.75;5287669;33;35545;-78
2022/12/13 03:58:22;;;;;;;;;;;;;;;-0.84;67.05;100192.78;5280109;33;34608;-77
2022/12/13 04:01:24;;;;;;;;;;;;;;;-0.23;65.58;100189.53;5293482;33;35219;-68
2022/12/13 04:04:26;;;;;;;;;;;;;;;-0.16;65.28;100192.09;5275598;33;35651;-78
2022/12/13 04:07:27;;;;;;;;;;;;;;;-0.71;66.62;100181.66;5267540;33;35974;-78
2022/12/13 04:10:35;;;;;;;;;;;;;;;-0.35;65.48;100193.78;5284084;33;35388;-76
2022/12/13 04:13:37;;;;;;;;;;;;;;;-0.14;64.81;100192.97;5279507;33;35183;-79
2022/12/13 04:16:39;;;;;;;;;;;;;;;0.06;63.74;100192.13;5285495;33;35866;-77
2022/12/13 04:19:40;;;;;;;;;;;;;;;-0.47;64.50;100205.81;5269601;33;36122;-76
2022/12/13 04:22:42;;;;;;;;;;;;;;;-0.49;65.75;100202.38;5278221;33;36202;-77
2022/12/13 04:25:44;;;;;;;;;;;;;;;0.22;63.70;100201.59;5277620;33;38329;-77
2022/12/13 04:28:46;;;;;;;;;;;;;;;0.23;63.61;100201.59;5270568;33;36392;-67
2022/12/13 04:31:55;;;;;;;;;;;;;;;-0.29;63.79;100195.53;5285910;33;38942;-68
2022/12/13 04:34:57;;;;;;;;;;;;;;;-0.27;65.15;100202.41;5269731;33;36279;-78
2022/12/13 04:38:02;;;;;;;;;;;;;;;-0.32;64.64;100203.28;5289015;33;36399;-77
2022/12/13 04:41:05;;;;;;;;;;;;;;;-0.40;65.18;100203.25;5266697;33;37225;-78
2022/12/13 04:44:07;;;;;;;;;;;;;;;0.04;63.60;100209.34;5285019;33;35676;-69
2022/12/13 04:47:29;;;;;;;;;;;;;;;-0.15;64.45;100204.16;5296869;32;35784;-67
2022/12/13 04:50:30;;;;;;;;;;;;;;;-0.22;63.76;100199.84;5272213;33;35197;-78
2022/12/13 04:53:32;;;;;;;;;;;;;;;-0.16;63.95;100207.59;5290324;33;33887;-67
2022/12/13 04:56:34;;;;;;;;;;;;;;;-0.23;63.98;100203.28;5272548;33;35404;-68
2022/12/13 04:59:37;;;;;;;;;;;;;;;-0.76;65.54;100205.72;5287232;33;35485;-77
2022/12/13 05:02:40;;;;;;;;;;;;;;;-0.59;64.46;100202.34;5286153;32;35483;-68
2022/12/13 05:05:42;;;;;;;;;;;;;;;-0.85;66.17;100209.97;5281108;32;36281;-67
2022/12/13 05:08:44;;;;;;;;;;;;;;;-0.61;65.37;100200.63;5296024;32;35494;-77
2022/12/13 05:11:46;;;;;;;;;;;;;;;-0.79;65.48;100211.72;5271051;33;44569;-67
2022/12/13 05:14:47;;;;;;;;;;;;;;;-0.16;64.22;100211.91;5287478;33;35442;-69
2022/12/13 05:17:49;;;;;;;;;;;;;;;-0.32;64.15;100211.03;5282329;32;36018;-67
2022/12/13 05:20:51;;;;;;;;;;;;;;;0.04;63.59;100201.59;5284465;33;34757;-67
2022/12/13 05:23:53;;;;;;;;;;;;;;;-0.20;63.40;100199.84;5287465;33;35125;-68
2022/12/13 05:26:56;;;;;;;;;;;;;;;0.25;62.99;100201.59;5280872;32;34985;-78
2022/12/13 05:29:57;;;;;;;;;;;;;;;0.77;61.20;100204.13;5288922;33;35518;-69
2022/12/13 05:33:05;;;;;;;;;;;;;;;0.52;60.81;100204.19;5272347;33;36362;-70
2022/12/13 05:36:07;;;;;;;;;;;;;;;0.06;62.97;100207.63;5286413;33;34915;-76
2022/12/13 05:39:09;;;;;;;;;;;;;;;0.44;61.62;100203.31;5254812;33;35694;-68
2022/12/13 05:42:30;;;;;;;;;;;;;;;-0.14;63.25;100200.72;5271911;33;34245;-78
2022/12/13 05:45:32;;;;;;;;;;;;;;;0.35;61.54;100205.06;5297113;33;36361;-77
2022/12/13 05:48:34;;;;;;;;;;;;;;;-0.84;64.73;100216.00;5271363;32;34939;-77
2022/12/13 05:51:36;;;;;;;;;;;;;;;-0.38;63.72;100213.59;5287185;33;35509;-69
2022/12/13 05:54:38;;;;;;;;;;;;;;;-0.45;64.19;100212.72;5270543;33;35449;-69
2022/12/13 05:57:43;;;;;;;;;;;;;;;0.17;62.01;100200.75;5294831;33;35706;-68
2022/12/13 06:00:51;;;;;;;;;;;;;;;0.49;60.67;100209.34;5270066;33;44774;-69
2022/12/13 06:03:53;;;;;;;;;;;;;;;0.21;61.24;100213.69;5269774;33;35254;-77
2022/12/13 06:06:55;;;;;;;;;;;;;;;-0.57;64.05;100223.87;5283085;33;35825;-68
2022/12/13 06:09:57;;;;;;;;;;;;;;;-0.05;62.58;100205.91;5266131;33;35528;-78
2022/12/13 06:13:11;;;;;;;;;;;;;;;-0.30;63.80;100219.63;5287056;33;35499;-68
2022/12/13 06:16:32;;;;;;;;;;;;;;;-0.01;62.46;100220.53;5267144;33;37778;-68
2022/12/13 06:19:34;;;;;;;;;;;;;;;0.22;62.57;100224.88;5278325;33;35914;-66
2022/12/13 06:22:36;;;;;;;;;;;;;;;-0.63;63.75;100213.53;5285150;33;38430;-70
2022/12/13 06:25:38;;;;;;;;;;;;;;;0.61;61.17;100225.72;5276328;32;34790;-77
2022/12/13 06:28:40;;;;;;;;;;;;;;;0.79;60.37;100223.97;5286081;33;35483;-68
2022/12/13 06:31:42;;;;;;;;;;;;;;;0.13;61.33;100218.00;5273127;33;34649;-67
2022/12/13 06:34:44;;;;;;;;;;;;;;;-0.95;64.88;100241.78;5288747;33;36009;-68
2022/12/13 06:37:46;;;;;;;;;;;;;;;-1.25;65.95;100242.44;5269365;33;44447;-70
2022/12/13 06:40:47;;;;;;;;;;;;;;;-0.89;66.08;100239.22;5263756;32;35563;-79
2022/12/13 06:43:49;;;;;;;;;;;;;;;-0.88;65.50;100251.25;5290676;33;34702;-90
2022/12/13 06:46:51;;;;;;;;;;;;;;;-0.57;65.29;100254.84;5273678;33;35880;-90
2022/12/13 06:50:13;;;;;;;;;;;;;;;-0.55;64.19;100254.84;5282716;33;36061;-90
2022/12/13 06:53:15;;;;;;;;;;;;;;;0.08;62.99;100252.44;5287289;32;44427;-92
2022/12/13 06:56:17;;;;;;;;;;;;;;;0.91;59.80;100248.09;5294781;32;34751;-90
2022/12/13 06:59:20;;;;;;;;;;;;;;;0.87;59.78;100243.78;5287895;32;36747;-70
2022/12/13 07:02:21;;;;;;;;;;;;;;;0.79;59.93;100252.41;5269197;32;34574;-83
2022/12/13 07:05:26;;;;;;;;;;;;;;;0.55;60.41;100260.19;5278333;32;37375;-84
2022/12/13 07:08:28;;;;;;;;;;;;;;;0.36;60.93;100266.22;5278504;32;36514;-79
2022/12/13 07:11:32;;;;;;;;;;;;;;;0.76;59.80;100269.66;5289877;32;34747;-83
2022/12/13 07:14:33;;;;;;;;;;;;;;;0.44;60.76;100274.84;5281969;32;34728;-71
2022/12/13 07:17:42;;;;;;;;;;;;;;;0.89;59.20;100271.37;5278667;33;34630;-75
2022/12/13 07:20:44;;;;;;;;;;;;;;;0.62;59.85;100271.41;5282064;32;35905;-72
2022/12/13 07:23:46;;;;;;;;;;;;;;;1.26;57.91;100266.09;5283037;32;46411;-75
2022/12/13 07:26:55;;;;;;;;;;;;;;;0.06;61.04;100273.09;5286768;33;36617;-89
2022/12/13 07:29:57;;;;;;;;;;;;;;;0.19;61.66;100272.28;5273699;32;35068;-73
2022/12/13 07:33:00;;;;;;;;;;;;;;;0.09;61.31;100267.94;5282097;33;34750;-72
2022/12/13 07:36:07;;;;;;;;;;;;;;;0.59;59.55;100281.78;5279338;32;36764;-87
2022/12/13 07:39:09;;;;;;;;;;;;;;;0.26;61.56;100279.16;5272290;32;36888;-75
2022/12/13 07:42:13;;;;;;;;;;;;;;;1.45;57.63;100277.28;5285083;33;36230;-89
2022/12/13 07:45:16;;;;;;;;;;;;;;;-0.61;62.41;100285.81;5277262;33;44596;-84
2022/12/13 07:48:18;;;;;;;;;;;;;;;-0.65;62.54;100289.22;5293001;33;34310;-74
2022/12/13 07:51:20;;;;;;;;;;;;;;;1.08;58.42;100293.75;5274136;32;35886;-74
2022/12/13 07:54:22;;;;;;;;;;;;;;;1.05;58.58;100287.75;5299151;32;34977;-73
2022/12/13 07:57:23;;;;;;;;;;;;;;;1.36;57.71;100291.13;5274559;33;35960;-75
2022/12/13 08:00:26;;;;;;;;;;;;;;;1.15;57.42;100284.25;5271143;32;38488;-77
2022/12/13 08:03:28;;;;;;;;;;;;;;;1.75;56.17;100284.91;5298490;32;37770;-71
2022/12/13 08:06:34;;;;;;;;;;;;;;;1.76;55.98;100284.03;5271477;33;34646;-76
2022/12/13 08:09:36;;;;;;;;;;;;;;;1.93;55.31;100286.53;5297485;32;34555;-72
2022/12/13 08:12:38;;;;;;;;;;;;;;;1.72;55.65;100290.09;5280600;33;35974;-69
2022/12/13 08:15:40;;;;;;;;;;;;;;;1.03;57.73;100299.81;5287478;33;34927;-75
2022/12/13 08:18:43;;;;;;;;;;;;;;;1.21;58.31;100301.50;5283534;33;36185;-73
2022/12/13 08:21:45;;;;;;;;;;;;;;;1.24;58.41;100299.78;5276654;33;44727;-69
2022/12/13 08:25:03;;;;;;;;;;;;;;;2.17;55.18;100295.91;5287510;33;38146;-71
2022/12/13 08:28:05;;;;;;;;;;;;;;;1.41;56.70;100298.84;5275449;33;35003;-76
2022/12/13 08:31:10;;;;;;;;;;;;;;;1.84;56.53;100300.41;5298618;32;36649;-69
2022/12/13 08:34:12;;;;;;;;;;;;;;;2.49;53.63;100287.03;5278600;33;37409;-69
2022/12/13 08:37:14;;;;;;;;;;;;;;;1.93;54.93;100294.31;5284713;33;36465;-71
2022/12/13 08:40:16;;;;;;;;;;;;;;;2.12;54.54;100292.47;5274993;32;44688;-71
2022/12/13 08:43:18;;;;;;;;;;;;;;;1.98;54.63;100302.06;5291737;32;35996;-76
2022/12/13 08:46:25;;;;;;;;;;;;;;;2.36;54.30;100300.09;5283704;33;34005;-69
2022/12/13 08:49:27;;;;;;;;;;;;;;;2.13;54.51;100307.19;5276520;33;34578;-77
2022/12/13 08:52:30;;;;;;;;;;;;;;;1.49;55.86;100297.97;5300248;32;34882;-75
2022/12/13 08:55:41;;;;;;;;;;;;;;;1.87;55.57;100294.37;5275182;33;34763;-73
2022/12/13 08:58:43;;;;;;;;;;;;;;;1.50;56.32;100298.84;5275347;33;34652;-80
2022/12/13 09:01:45;;;;;;;;;;;;;;;1.37;55.98;100302.34;5283809;33;44654;-72
2022/12/13 09:04:47;;;;;;;;;;;;;;;2.51;53.23;100299.09;5270992;33;36424;-76
2022/12/13 09:07:53;;;;;;;;;;;;;;;1.95;53.83;100302.09;5284691;33;34634;-74
2022/12/13 09:10:56;;;;;;;;;;;;;;;1.89;54.16;100292.62;5283832;32;37122;-73
2022/12/13 09:14:00;;;;;;;;;;;;;;;2.34;52.59;100291.47;5293663;32;34667;-70
2022/12/13 09:17:02;;;;;;;;;;;;;;;2.30;53.11;100289.75;5276540;33;36117;-74
2022/12/13 09:20:06;;;;;;;;;;;;;;;2.71;52.74;100293.78;5279940;32;34794;-70
2022/12/13 09:23:28;;;;;;;;;;;;;;;2.42;51.73;100279.28;5295542;32;35016;-72
2022/12/13 09:26:36;;;;;;;;;;;;;;;2.78;51.59;100273.81;5267898;33;34808;-72
2022/12/13 09:29:39;;;;;;;;;;;;;;;3.04;50.08;100274.44;5262762;32;34711;-73
2022/12/13 09:32:48;;;;;;;;;;;;;;;3.43;47.63;100269.69;5280996;32;36515;-76
2022/12/13 09:35:51;;;;;;;;;;;;;;;3.69;47.08;100270.22;5279864;32;44599;-77
2022/12/13 09:38:54;;;;;;;;;;;;;;;1.91;51.64;100277.91;5276386;33;35704;-80
2022/12/13 09:41:57;;;;;;;;;;;;;;;3.15;48.53;100276.91;5283255;32;34901;-75
2022/12/13 09:45:04;;;;;;;;;;;;;;;2.16;50.28;100276.03;5296106;32;34650;-74
2022/12/13 09:48:06;;;;;;;;;;;;;;;2.90;47.88;100278.91;5274739;32;34949;-77
2022/12/13 09:51:14;;;;;;;;;;;;;;;3.21;46.48;100271.63;5298137;32;36243;-79
2022/12/13 09:54:26;;;;;;;;;;;;;;;2.98;46.90;100274.50;5289097;32;38275;-74
2022/12/13 09:57:29;;;;;;;;;;;;;;;2.77;47.67;100272.97;5276659;33;33536;-72
2022/12/13 10:00:34;;;;;;;;;;;;;;;3.05;47.69;100276.16;5294902;32;34714;-77
2022/12/13 10:03:36;;;;;;;;;;;;;;;1.43;50.71;100277.28;5272501;33;34282;-80
2022/12/13 10:06:38;;;;;;;;;;;;;;;3.00;47.70;100275.31;5298221;32;35748;-80
2022/12/13 10:09:40;;;;;;;;;;;;;;;2.69;48.23;100260.03;5288262;32;35480;-77
2022/12/13 10:12:43;;;;;;;;;;;;;;;3.21;47.73;100266.44;5282721;32;36110;-79
2022/12/13 10:15:46;;;;;;;;;;;;;;;3.29;47.19;100262.03;5278158;32;44074;-74
2022/12/13 10:18:48;;;;;;;;;;;;;;;3.57;46.97;100254.78;5288919;32;35881;-74
2022/12/13 10:21:50;;;;;;;;;;;;;;;2.93;47.86;100258.09;5300060;32;35823;-74
2022/12/13 10:25:02;;;;;;;;;;;;;;;2.71;48.85;100253.13;5288719;32;36441;-77
2022/12/13 10:28:05;;;;;;;;;;;;;;;2.68;48.82;100253.13;5289729;33;34410;-85
2022/12/13 10:31:07;;;;;;;;;;;;;;;3.09;48.30;100253.59;5276758;33;35723;-84
2022/12/13 10:34:28;;;;;;;;;;;;;;;2.91;48.28;100246.87;5281168;32;35348;-75
2022/12/13 10:37:30;;;;;;;;;;;;;;;3.62;46.37;100239.97;5289590;32;35062;-89
2022/12/13 10:40:37;;;;;;;;;;;;;;;3.15;47.63;100245.72;5247935;32;34635;-86
2022/12/13 10:43:39;;;;;;;;;;;;;;;3.59;46.84;100247.81;5298461;32;33901;-73
2022/12/13 10:46:46;;;;;;;;;;;;;;;3.41;46.99;100241.09;5274024;33;34694;-80
2022/12/13 10:49:52;;;;;;;;;;;;;;;4.08;45.66;100234.13;5290970;32;44352;-81
2022/12/13 10:53:00;;;;;;;;;;;;;;;3.86;45.51;100230.13;5287208;32;37531;-73
2022/12/13 10:56:02;;;;;;;;;;;;;;;2.92;48.24;100231.28;5266998;32;36619;-81
2022/12/13 10:59:20;;;;;;;;;;;;;;;4.29;45.18;100233.78;5286647;33;35355;-73
2022/12/13 11:02:36;;;;;;;;;;;;;;;3.26;46.52;100223.09;5282050;32;44554;-73
2022/12/13 11:05:39;;;;;;;;;;;;;;;3.02;47.26;100228.56;5271543;33;34001;-70
2022/12/13 11:08:41;;;;;;;;;;;;;;;3.69;46.19;100226.03;5277774;32;36081;-72
2022/12/13 11:11:44;;;;;;;;;;;;;;;4.00;45.36;100221.25;5282552;32;37139;-75
2022/12/13 11:14:52;;;;;;;;;;;;;;;3.84;45.29;100209.34;5288324;33;45182;-75
2022/12/13 11:18:00;;;;;;;;;;;;;;;4.91;43.41;100222.34;5271131;33;36569;-73
2022/12/13 11:21:03;;;;;;;;;;;;;;;5.10;43.30;100201.12;5287872;32;36560;-70
2022/12/13 11:24:06;;;;;;;;;;;;;;;5.75;41.54;100197.16;5276165;32;35028;-77
2022/12/13 11:27:27;;;;;;;;;;;;;;;4.69;42.70;100203.63;5274950;32;35011;-76
2022/12/13 11:30:47;;;;;;;;;;;;;;;6.47;40.06;100188.50;5284129;33;34828;-77
2022/12/13 11:34:10;;;;;;;;;;;;;;;8.84;35.97;100174.34;5266983;33;44547;-71
2022/12/13 11:37:18;;;;;;;;;;;;;;;8.90;35.19;100173.28;5283175;33;33535;-75
2022/12/13 11:40:24;;;;;;;;;;;;;;;7.28;37.57;100179.31;5257447;33;44264;-72
2022/12/13 11:43:35;;;;;;;;;;;;;;;8.02;36.66;100177.09;5280474;32;34707;-75
2022/12/13 11:46:40;;;;;;;;;;;;;;;7.55;36.70;100176.81;5280928;32;33425;-72
2022/12/13 11:49:44;;;;;;;;;;;;;;;7.39;38.18;100175.53;5274706;32;36198;-74
2022/12/13 11:52:51;;;;;;;;;;;;;;;9.37;34.50;100173.28;5294113;32;44816;-70
2022/12/13 11:55:55;;;;;;;;;;;;;;;9.44;33.96;100180.88;5274731;33;34820;-76
2022/12/13 11:59:00;;;;;;;;;;;;;;;9.35;33.80;100177.75;5285689;32;37912;-81
2022/12/13 12:02:06;;;;;;;;;;;;;;;9.87;32.72;100166.09;5285212;32;36308;-76
2022/12/13 12:05:23;;;;;;;;;;;;;;;10.91;31.33;100160.91;5273299;33;45320;-75
2022/12/13 12:08:32;;;;;;;;;;;;;;;11.48;30.16;100162.69;5278107;32;34745;-74
2022/12/13 12:11:35;;;;;;;;;;;;;;;11.70;28.87;100157.28;5277025;32;36126;-76
2022/12/13 12:14:41;;;;;;;;;;;;;;;14.04;26.15;100153.88;5274591;33;34775;-80
2022/12/13 12:17:44;;;;;;;;;;;;;;;14.75;24.50;100152.41;5290773;32;34710;-78
2022/12/13 12:21:13;;;;;;;;;;;;;;;13.53;26.36;100157.66;5276803;32;44542;-73
2022/12/13 12:24:27;;;;;;;;;;;;;;;13.54;26.70;100160.22;5281611;33;45318;-79
2022/12/13 12:27:35;;;;;;;;;;;;;;;14.04;25.95;100151.25;5264773;33;36075;-70
2022/12/13 12:30:41;;;;;;;;;;;;;;;13.89;26.08;100152.09;5266221;33;36624;-79
2022/12/13 12:33:56;;;;;;;;;;;;;;;14.23;25.01;100152.81;5298575;32;36883;-82
2022/12/13 12:37:10;;;;;;;;;;;;;;;12.57;27.10;100158.31;5270867;33;35143;-76
2022/12/13 12:40:15;;;;;;;;;;;;;;;11.69;27.99;100160.84;5261869;32;35578;-75
2022/12/13 12:43:22;;;;;;;;;;;;;;;9.80;30.83;100163.78;5279221;32;44521;-75
2022/12/13 12:46:24;;;;;;;;;;;;;;;8.72;33.89;100168.66;5260785;33;36581;-72
2022/12/13 12:49:31;;;;;;;;;;;;;;;13.51;26.67;100141.87;5289606;32;35415;-75
2022/12/13 12:52:48;;;;;;;;;;;;;;;13.53;25.22;100144.47;5268398;33;34718;-68
2022/12/13 12:56:00;;;;;;;;;;;;;;;14.58;24.36;100149.00;5282278;32;44780;-72
2022/12/13 12:59:20;;;;;;;;;;;;;;;12.79;25.78;100154.56;5266444;33;36824;-71
2022/12/13 13:02:41;;;;;;;;;;;;;;;11.42;28.18;100160.34;5263292;33;43796;-72
2022/12/13 13:05:57;;;;;;;;;;;;;;;8.85;32.52;100176.03;5274486;32;35522;-75
2022/12/13 13:09:04;;;;;;;;;;;;;;;8.17;33.38;100183.56;5276957;32;38204;-74
2022/12/13 13:12:07;;;;;;;;;;;;;;;8.28;33.44;100179.72;5293444;32;37333;-77
2022/12/13 13:15:32;;;;;;;;;;;;;;;6.79;36.35;100187.66;5271789;32;34783;-82
2022/12/13 13:18:42;;;;;;;;;;;;;;;7.41;35.70;100187.66;5275224;32;36753;-80
2022/12/13 13:21:47;;;;;;;;;;;;;;;6.54;37.32;100202.25;5279340;32;34627;-76
2022/12/13 13:24:57;;;;;;;;;;;;;;;6.34;37.39;100203.63;5267659;33;44548;-87
2022/12/13 13:28:12;;;;;;;;;;;;;;;5.87;38.95;100204.72;5292186;32;38094;-67
2022/12/13 13:31:14;;;;;;;;;;;;;;;5.48;39.45;100203.84;5273925;32;44052;-74
2022/12/13 13:34:24;;;;;;;;;;;;;;;4.74;41.40;100207.88;5287578;32;36755;-85
2022/12/13 13:37:27;;;;;;;;;;;;;;;4.46;42.01;100219.66;5271008;32;35054;-80
2022/12/13 13:40:36;;;;;;;;;;;;;;;4.84;40.94;100219.00;5264651;32;36099;-77
2022/12/13 13:43:38;;;;;;;;;;;;;;;5.02;40.93;100216.03;5284041;33;35103;-73
2022/12/13 13:47:00;;;;;;;;;;;;;;;5.58;40.20;100218.38;5270625;33;36006;-72
2022/12/13 13:50:05;;;;;;;;;;;;;;;4.96;41.09;100223.97;5266948;33;39097;-79
2022/12/13 13:53:26;;;;;;;;;;;;;;;4.37;43.01;100230.19;5287020;33;35029;-88
2022/12/13 13:56:48;;;;;;;;;;;;;;;5.86;39.84;100216.91;5260675;33;36977;-73
2022/12/13 14:00:13;;;;;;;;;;;;;;;6.64;38.38;100216.81;5278525;32;43382;-73
2022/12/13 14:03:30;;;;;;;;;;;;;;;7.86;35.84;100219.44;5282321;33;45877;-77
2022/12/13 14:06:41;;;;;;;;;;;;;;;7.72;36.12;100218.97;5272557;33;34779;-79
2022/12/13 14:09:48;;;;;;;;;;;;;;;7.76;35.18;100210.16;5298485;32;37614;-76
2022/12/13 14:13:09;;;;;;;;;;;;;;;7.43;35.40;100209.38;5277331;32;44534;-83
2022/12/13 14:16:29;;;;;;;;;;;;;;;5.70;39.42;100228.53;5290090;33;34852;-80
2022/12/13 14:19:37;;;;;;;;;;;;;;;5.63;39.52;100216.53;5287919;33;34961;-85
2022/12/13 14:22:39;;;;;;;;;;;;;;;5.53;39.71;100222.81;5282613;32;34878;-78
2022/12/13 14:25:41;;;;;;;;;;;;;;;5.44;39.51;100214.31;5277635;33;34893;-70
2022/12/13 14:28:52;;;;;;;;;;;;;;;5.57;39.37;100217.53;5277127;32;44169;-72
2022/12/13 14:32:00;;;;;;;;;;;;;;;5.29;40.41;100214.66;5298934;32;34533;-77
2022/12/13 14:35:04;;;;;;;;;;;;;;;5.22;40.25;100215.66;5271875;32;34901;-74
2022/12/13 14:38:27;;;;;;;;;;;;;;;5.59;40.04;100218.34;5265449;33;35292;-74
2022/12/13 14:41:30;;;;;;;;;;;;;;;5.38;39.80;100224.00;5279181;33;34705;-73
2022/12/13 14:44:34;;;;;;;;;;;;;;;4.21;42.15;100225.25;5286782;32;35161;-73
2022/12/13 14:47:39;;;;;;;;;;;;;;;4.58;42.36;100227.25;5294306;32;34699;-73
2022/12/13 14:50:42;;;;;;;;;;;;;;;4.16;43.09;100234.88;5272359;33;36205;-71
2022/12/13 14:53:44;;;;;;;;;;;;;;;3.37;44.88;100233.37;5275390;32;46346;-73
2022/12/13 14:57:00;;;;;;;;;;;;;;;4.24;43.41;100240.81;5295524;32;35984;-70
2022/12/13 15:00:21;;;;;;;;;;;;;;;4.61;42.46;100227.19;5270016;33;35882;-69
2022/12/13 15:03:24;;;;;;;;;;;;;;;4.09;43.03;100233.25;5281696;32;45004;-71
2022/12/13 15:06:27;;;;;;;;;;;;;;;3.83;44.38;100233.63;5276524;32;36457;-69
2022/12/13 15:09:29;;;;;;;;;;;;;;;4.42;43.95;100238.81;5266925;33;35381;-70
2022/12/13 15:12:33;;;;;;;;;;;;;;;3.49;46.02;100235.81;5275505;32;36577;-70
2022/12/13 15:15:35;;;;;;;;;;;;;;;3.88;45.67;100250.03;5262287;33;35870;-71
2022/12/13 15:18:37;;;;;;;;;;;;;;;3.39;47.18;100260.19;5289110;32;36616;-77
2022/12/13 15:21:39;;;;;;;;;;;;;;;3.73;47.04;100253.66;5265358;33;35469;-71
2022/12/13 15:24:45;;;;;;;;;;;;;;;2.91;48.98;100257.25;5279069;33;34827;-71
2022/12/13 15:27:47;;;;;;;;;;;;;;;2.99;49.45;100260.63;5277337;32;46220;-79
2022/12/13 15:30:49;;;;;;;;;;;;;;;3.69;46.94;100256.34;5264016;33;36072;-79
2022/12/13 15:33:51;;;;;;;;;;;;;;;3.38;48.14;100266.25;5282816;33;37700;-79
2022/12/13 15:37:11;;;;;;;;;;;;;;;3.20;48.31;100275.97;5268832;33;34692;-79
2022/12/13 15:40:31;;;;;;;;;;;;;;;3.40;47.61;100275.75;5258691;33;36089;-71
2022/12/13 15:43:36;;;;;;;;;;;;;;;3.64;47.69;100277.19;5275069;32;35120;-70
2022/12/13 15:46:38;;;;;;;;;;;;;;;3.52;47.80;100261.75;5272570;33;36130;-70
2022/12/13 15:49:51;;;;;;;;;;;;;;;3.33;48.16;100278.44;5277481;33;34796;-70
2022/12/13 15:52:57;;;;;;;;;;;;;;;2.93;48.86;100281.47;5280166;32;44350;-79
2022/12/13 15:55:59;;;;;;;;;;;;;;;2.75;48.74;100273.84;5284266;33;36220;-81
2022/12/13 15:59:26;;;;;;;;;;;;;;;2.82;49.55;100285.88;5275141;32;34856;-80
2022/12/13 16:02:28;;;;;;;;;;;;;;;3.13;48.77;100284.72;5284988;32;37153;-71
2022/12/13 16:05:41;;;;;;;;;;;;;;;3.10;48.14;100286.50;5279775;33;35440;-80
2022/12/13 16:08:48;;;;;;;;;;;;;;;2.91;49.01;100296.19;5266182;33;37949;-71